createdAt,value
2023-04-22T00:01:09.101Z,9.79
2023-04-22T00:03:42.790Z,9.75
2023-04-22T00:06:15.143Z,9.71
2023-04-22T00:08:47.494Z,9.69
2023-04-22T00:11:19.630Z,9.65
2023-04-22T00:13:51.848Z,9.62
2023-04-22T00:16:24.017Z,9.58
2023-04-22T00:18:56.295Z,9.59
2023-04-22T00:21:28.737Z,9.58
2023-04-22T00:24:00.800Z,9.58
2023-04-22T00:26:33.103Z,9.58
2023-04-22T00:29:05.600Z,9.58
2023-04-22T00:31:38.578Z,9.56
2023-04-22T00:34:10.861Z,9.52
2023-04-22T00:36:43.320Z,9.51
2023-04-22T00:39:16.778Z,9.48
2023-04-22T00:41:49.047Z,9.44
2023-04-22T00:44:21.644Z,9.39
2023-04-22T00:46:54.484Z,9.36
2023-04-22T00:49:28.512Z,9.36
2023-04-22T00:52:00.669Z,9.30
2023-04-22T00:54:33.140Z,9.27
2023-04-22T00:57:07.209Z,9.24
2023-04-22T00:59:39.740Z,9.21
2023-04-22T01:02:12.967Z,9.18
2023-04-22T01:04:45.957Z,9.16
2023-04-22T01:07:18.760Z,9.14
2023-04-22T01:09:51.227Z,9.10
2023-04-22T01:12:23.381Z,9.05
2023-04-22T01:14:55.965Z,9.03
2023-04-22T01:17:28.313Z,8.99
2023-04-22T01:20:00.819Z,8.95
2023-04-22T01:22:36.916Z,8.92
2023-04-22T01:25:10.483Z,8.92
2023-04-22T01:27:43.145Z,8.86
2023-04-22T01:30:15.506Z,8.84
2023-04-22T01:32:48.095Z,8.80
2023-04-22T01:35:20.332Z,8.77
2023-04-22T01:37:53.214Z,8.72
2023-04-22T01:40:27.601Z,8.71
2023-04-22T01:43:00.946Z,8.70
2023-04-22T01:45:33.778Z,8.68
2023-04-22T01:48:07.119Z,8.68
2023-04-22T01:50:39.775Z,8.52
2023-04-22T01:53:12.329Z,8.52
2023-04-22T01:55:45.448Z,8.60
2023-04-22T01:58:18.516Z,8.58
2023-04-22T02:00:50.778Z,8.56
2023-04-22T02:03:23.204Z,8.54
2023-04-22T02:05:55.310Z,8.55
2023-04-22T02:08:27.520Z,8.54
2023-04-22T02:11:01.237Z,8.52
2023-04-22T02:13:38.436Z,8.50
2023-04-22T02:16:12.880Z,8.47
2023-04-22T02:18:46.692Z,8.44
2023-04-22T02:21:19.082Z,8.45
2023-04-22T02:23:51.122Z,8.44
2023-04-22T02:26:23.882Z,8.41
2023-04-22T02:28:56.094Z,8.41
2023-04-22T02:31:30.612Z,8.45
2023-04-22T02:34:02.992Z,8.48
2023-04-22T02:36:35.323Z,8.53
2023-04-22T02:39:07.351Z,8.56
2023-04-22T02:41:40.515Z,8.56
2023-04-22T02:44:13.186Z,8.61
2023-04-22T02:46:45.412Z,8.66
2023-04-22T02:49:17.890Z,8.72
2023-04-22T02:51:50.144Z,8.80
2023-04-22T02:54:23.512Z,8.87
2023-04-22T02:56:55.667Z,8.93
2023-04-22T02:59:27.988Z,8.98
2023-04-22T03:02:00.649Z,9.05
2023-04-22T03:04:34.496Z,9.14
2023-04-22T03:07:06.604Z,9.32
2023-04-22T03:09:39.507Z,9.47
2023-04-22T03:12:12.097Z,9.55
2023-04-22T03:14:44.365Z,9.60
2023-04-22T03:17:16.899Z,9.62
2023-04-22T03:19:49.404Z,9.64
2023-04-22T03:22:22.005Z,9.64
2023-04-22T03:24:56.176Z,9.67
2023-04-22T03:27:28.402Z,9.73
2023-04-22T03:30:00.646Z,9.77
2023-04-22T03:32:35.114Z,9.81
2023-04-22T03:35:09.289Z,9.87
2023-04-22T03:37:41.754Z,9.94
2023-04-22T03:40:15.659Z,9.98
2023-04-22T03:42:47.700Z,10.04
2023-04-22T03:45:21.726Z,10.11
2023-04-22T03:47:58.917Z,10.19
2023-04-22T03:50:32.715Z,10.26
2023-04-22T03:53:05.191Z,10.33
2023-04-22T03:55:37.495Z,10.38
2023-04-22T03:58:10.940Z,10.46
2023-04-22T04:00:43.809Z,10.53
2023-04-22T04:03:17.805Z,10.62
2023-04-22T04:05:51.860Z,10.68
2023-04-22T04:08:25.382Z,10.77
2023-04-22T04:10:57.979Z,10.86
2023-04-22T04:13:32.530Z,10.92
2023-04-22T04:16:23.494Z,11.00
2023-04-22T04:18:57.280Z,11.09
2023-04-22T04:21:31.986Z,11.17
2023-04-22T04:24:05.340Z,11.22
2023-04-22T04:26:39.392Z,11.28
2023-04-22T04:29:24.165Z,11.34
2023-04-22T04:32:00.976Z,11.41
2023-04-22T04:34:34.500Z,11.47
2023-04-22T04:37:07.186Z,11.53
2023-04-22T04:39:44.691Z,11.50
2023-04-22T04:42:17.512Z,11.65
2023-04-22T04:44:51.826Z,11.71
2023-04-22T04:47:25.102Z,11.83
2023-04-22T04:49:59.449Z,11.93
2023-04-22T04:52:33.089Z,12.04
2023-04-22T04:55:06.436Z,12.12
2023-04-22T04:57:39.133Z,12.16
2023-04-22T05:00:11.460Z,12.23
2023-04-22T05:02:44.531Z,12.29
2023-04-22T05:05:18.044Z,12.41
2023-04-22T05:07:51.979Z,12.49
2023-04-22T05:10:25.598Z,12.54
2023-04-22T05:12:58.360Z,12.60
2023-04-22T05:15:31.103Z,12.66
2023-04-22T05:18:03.272Z,12.74
2023-04-22T05:20:36.670Z,12.83
2023-04-22T05:23:09.225Z,12.90
2023-04-22T05:25:41.718Z,12.97
2023-04-22T05:28:15.431Z,13.04
2023-04-22T05:30:52.913Z,13.14
2023-04-22T05:33:25.025Z,13.24
2023-04-22T05:35:57.660Z,13.33
2023-04-22T05:38:30.890Z,13.43
2023-04-22T05:41:03.345Z,13.51
2023-04-22T05:43:35.859Z,13.54
2023-04-22T05:46:09.911Z,13.60
2023-04-22T05:48:43.815Z,13.69
2023-04-22T05:51:17.063Z,13.79
2023-04-22T05:53:48.771Z,14.04
2023-04-22T05:56:22.446Z,14.02
2023-04-22T05:58:55.074Z,14.11
2023-04-22T06:01:29.079Z,14.29
2023-04-22T06:04:05.781Z,14.88
2023-04-22T06:06:38.845Z,15.54
2023-04-22T06:09:11.009Z,16.15
2023-04-22T06:11:44.962Z,16.53
2023-04-22T06:14:17.341Z,16.92
2023-04-22T06:16:50.934Z,17.33
2023-04-22T06:19:22.902Z,19.16
2023-04-22T06:21:55.033Z,19.16
2023-04-22T06:24:28.162Z,20.50
2023-04-22T06:27:00.284Z,21.19
2023-04-22T06:29:33.592Z,21.20
2023-04-22T06:32:06.083Z,21.41
2023-04-22T06:34:38.959Z,21.41
2023-04-22T06:37:11.236Z,21.61
2023-04-22T06:39:44.528Z,21.98
2023-04-22T06:42:34.748Z,22.24
2023-04-22T06:45:26.741Z,22.26
2023-04-22T06:48:00.318Z,22.44
2023-04-22T06:50:34.103Z,23.21
2023-04-22T06:53:06.767Z,22.96
2023-04-22T06:55:39.986Z,23.39
2023-04-22T06:58:12.434Z,24.40
2023-04-22T07:00:44.770Z,25.66
2023-04-22T07:03:18.284Z,26.49
2023-04-22T07:05:52.404Z,26.46
2023-04-22T07:08:24.856Z,25.40
2023-04-22T07:10:58.136Z,23.99
2023-04-22T07:13:41.418Z,22.28
2023-04-22T07:16:14.003Z,21.12
2023-04-22T07:18:46.173Z,20.38
2023-04-22T07:21:18.244Z,19.93
2023-04-22T07:23:50.381Z,19.54
2023-04-22T07:26:23.006Z,19.40
2023-04-22T07:28:55.636Z,19.31
2023-04-22T07:31:27.845Z,19.12
2023-04-22T07:34:01.324Z,18.88
2023-04-22T07:36:33.309Z,18.69
2023-04-22T07:39:06.021Z,18.61
2023-04-22T07:41:39.666Z,18.58
2023-04-22T07:44:13.529Z,18.50
2023-04-22T07:46:46.228Z,18.47
2023-04-22T07:49:20.089Z,18.41
2023-04-22T07:51:52.808Z,18.27
2023-04-22T07:54:25.678Z,18.05
2023-04-22T07:56:58.614Z,17.78
2023-04-22T07:59:31.857Z,17.60
2023-04-22T08:02:04.463Z,17.40
2023-04-22T08:04:37.581Z,17.27
2023-04-22T08:07:29.696Z,17.26
2023-04-22T08:09:44.831Z,17.47
2023-04-22T08:12:17.169Z,17.99
2023-04-22T08:14:49.548Z,18.31
2023-04-22T08:17:23.358Z,18.85
2023-04-22T08:19:56.242Z,19.34
2023-04-22T08:22:28.915Z,19.84
2023-04-22T08:25:02.031Z,20.21
2023-04-22T08:27:34.652Z,20.49
2023-04-22T08:30:08.404Z,20.63
2023-04-22T08:32:40.685Z,20.59
2023-04-22T08:35:13.234Z,20.46
2023-04-22T08:37:45.455Z,20.17
2023-04-22T08:40:18.704Z,19.90
2023-04-22T08:42:52.559Z,19.71
2023-04-22T08:45:25.224Z,19.40
2023-04-22T08:47:58.381Z,19.18
2023-04-22T08:50:33.092Z,18.88
2023-04-22T08:53:05.428Z,18.70
2023-04-22T08:55:38.129Z,18.47
2023-04-22T08:58:12.091Z,18.26
2023-04-22T09:00:47.225Z,18.02
2023-04-22T09:03:20.774Z,17.83
2023-04-22T09:05:54.547Z,17.75
2023-04-22T09:08:27.757Z,17.76
2023-04-22T09:11:00.742Z,17.74
2023-04-22T09:13:34.368Z,17.74
2023-04-22T09:16:07.595Z,17.84
2023-04-22T09:18:46.071Z,18.02
2023-04-22T09:21:18.440Z,18.15
2023-04-22T09:23:52.877Z,18.51
2023-04-22T09:26:26.137Z,18.98
2023-04-22T09:29:01.003Z,19.43
2023-04-22T09:31:34.872Z,19.68
2023-04-22T09:34:07.802Z,19.89
2023-04-22T09:36:40.843Z,20.12
2023-04-22T09:39:13.504Z,20.14
2023-04-22T09:41:46.224Z,20.18
2023-04-22T09:44:19.280Z,20.01
2023-04-22T09:46:51.711Z,19.83
2023-04-22T09:49:25.451Z,19.58
2023-04-22T09:51:58.984Z,19.35
2023-04-22T09:54:31.668Z,19.20
2023-04-22T09:57:06.057Z,18.97
2023-04-22T09:59:39.135Z,18.70
2023-04-22T10:02:11.666Z,18.39
2023-04-22T10:04:44.251Z,18.07
2023-04-22T10:07:18.022Z,17.74
2023-04-22T10:09:50.880Z,17.62
2023-04-22T10:12:32.971Z,17.65
2023-04-22T10:14:57.366Z,17.86
2023-04-22T10:17:35.538Z,18.18
2023-04-22T10:20:12.826Z,18.58
2023-04-22T10:22:45.703Z,19.00
2023-04-22T10:25:28.874Z,19.45
2023-04-22T10:28:12.225Z,19.63
2023-04-22T10:30:44.542Z,19.94
2023-04-22T10:33:26.614Z,20.15
2023-04-22T10:36:14.242Z,20.30
2023-04-22T10:38:58.521Z,20.37
2023-04-22T10:41:36.313Z,20.31
2023-04-22T10:44:10.002Z,20.07
2023-04-22T10:46:54.768Z,19.79
2023-04-22T10:49:29.720Z,19.45
2023-04-22T10:52:04.247Z,19.08
2023-04-22T10:54:47.592Z,18.83
2023-04-22T10:57:24.500Z,18.58
2023-04-22T11:00:01.990Z,18.38
2023-04-22T11:02:38.534Z,18.32
2023-04-22T11:05:25.837Z,18.28
2023-04-22T11:07:59.724Z,18.18
2023-04-22T11:10:44.679Z,18.17
2023-04-22T11:13:19.787Z,18.34
2023-04-22T11:15:54.485Z,18.64
2023-04-22T11:18:28.235Z,19.23
2023-04-22T11:21:08.883Z,19.76
2023-04-22T11:23:42.806Z,20.18
2023-04-22T11:26:15.642Z,20.45
2023-04-22T11:28:50.895Z,20.58
2023-04-22T11:31:23.108Z,20.36
2023-04-22T11:33:57.204Z,20.00
2023-04-22T11:36:29.608Z,19.72
2023-04-22T11:39:02.450Z,19.53
2023-04-22T11:41:35.436Z,19.37
2023-04-22T11:44:08.166Z,19.24
2023-04-22T11:46:40.739Z,19.10
2023-04-22T11:49:14.975Z,19.01
2023-04-22T11:51:59.475Z,18.81
2023-04-22T11:54:37.547Z,18.76
2023-04-22T11:57:13.304Z,18.85
2023-04-22T11:59:45.790Z,19.20
2023-04-22T12:02:19.291Z,19.49
2023-04-22T12:04:52.015Z,19.63
2023-04-22T12:07:24.562Z,19.74
2023-04-22T12:09:57.709Z,20.76
2023-04-22T12:12:30.750Z,22.38
2023-04-22T12:15:13.528Z,24.80
2023-04-22T12:17:46.968Z,27.26
2023-04-22T12:20:22.308Z,29.29
2023-04-22T12:22:54.885Z,31.53
2023-04-22T12:25:28.274Z,33.69
2023-04-22T12:28:01.304Z,34.13
2023-04-22T12:30:35.396Z,34.26
2023-04-22T12:33:07.628Z,33.52
2023-04-22T12:35:40.242Z,31.77
2023-04-22T12:38:13.870Z,29.84
2023-04-22T12:40:46.901Z,27.85
2023-04-22T12:43:20.186Z,27.08
2023-04-22T12:45:54.932Z,27.72
2023-04-22T12:48:27.514Z,30.07
2023-04-22T12:51:00.694Z,32.89
2023-04-22T12:53:33.328Z,35.66
2023-04-22T12:56:05.839Z,37.85
2023-04-22T12:58:39.045Z,39.37
2023-04-22T13:01:11.587Z,40.02
2023-04-22T13:03:44.406Z,40.86
2023-04-22T13:06:17.441Z,41.45
2023-04-22T13:08:51.822Z,41.93
2023-04-22T13:11:24.975Z,42.46
2023-04-22T13:13:58.832Z,43.53
2023-04-22T13:16:31.758Z,38.51
2023-04-22T13:19:04.728Z,36.08
2023-04-22T13:21:37.294Z,33.87
2023-04-22T13:24:09.950Z,31.23
2023-04-22T13:26:42.533Z,29.13
2023-04-22T13:29:14.853Z,27.31
2023-04-22T13:31:47.122Z,25.84
2023-04-22T13:34:19.784Z,24.77
2023-04-22T13:36:52.348Z,23.97
2023-04-22T13:39:25.747Z,23.21
2023-04-22T13:41:58.115Z,23.95
2023-04-22T13:44:30.508Z,26.48
2023-04-22T13:47:02.981Z,29.49
2023-04-22T13:49:35.102Z,32.18
2023-04-22T13:52:07.142Z,34.28
2023-04-22T13:54:39.215Z,36.16
2023-04-22T13:57:12.205Z,38.02
2023-04-22T13:59:44.531Z,39.63
2023-04-22T14:02:17.779Z,40.59
2023-04-22T14:04:50.043Z,40.11
2023-04-22T14:07:22.777Z,40.11
2023-04-22T14:09:55.742Z,39.98
2023-04-22T14:12:28.339Z,39.96
2023-04-22T14:15:00.789Z,39.59
2023-04-22T14:17:35.166Z,38.81
2023-04-22T14:20:08.431Z,36.64
2023-04-22T14:22:40.670Z,33.62
2023-04-22T14:25:13.530Z,30.76
2023-04-22T14:27:46.638Z,28.20
2023-04-22T14:30:20.728Z,26.41
2023-04-22T14:32:53.225Z,24.94
2023-04-22T14:35:26.189Z,23.85
2023-04-22T14:37:58.680Z,23.22
2023-04-22T14:40:31.146Z,24.46
2023-04-22T14:43:05.781Z,26.51
2023-04-22T14:45:38.623Z,28.71
2023-04-22T14:48:11.447Z,30.02
2023-04-22T14:50:44.329Z,30.49
2023-04-22T14:53:16.458Z,30.04
2023-04-22T14:55:48.729Z,28.42
2023-04-22T14:58:20.822Z,26.69
2023-04-22T15:00:53.249Z,24.98
2023-04-22T15:03:25.576Z,23.58
2023-04-22T15:05:58.152Z,22.44
2023-04-22T15:08:30.519Z,21.58
2023-04-22T15:11:02.850Z,20.86
2023-04-22T15:13:36.392Z,20.28
2023-04-22T15:16:09.148Z,19.87
2023-04-22T15:18:42.758Z,19.53
2023-04-22T15:21:14.993Z,19.25
2023-04-22T15:23:47.771Z,18.98
2023-04-22T15:26:20.049Z,18.75
2023-04-22T15:28:52.321Z,18.58
2023-04-22T15:31:24.950Z,18.43
2023-04-22T15:33:57.078Z,18.33
2023-04-22T15:36:30.203Z,18.21
2023-04-22T15:39:03.233Z,18.08
2023-04-22T15:41:35.472Z,17.99
2023-04-22T15:44:08.773Z,17.93
2023-04-22T15:46:41.752Z,17.86
2023-04-22T15:49:15.095Z,17.71
2023-04-22T15:51:47.294Z,17.52
2023-04-22T15:54:19.595Z,17.40
2023-04-22T15:56:51.775Z,17.32
2023-04-22T15:59:24.258Z,17.20
2023-04-22T16:01:57.107Z,17.06
2023-04-22T16:04:29.701Z,16.94
2023-04-22T16:07:01.978Z,16.84
2023-04-22T16:09:34.377Z,16.50
2023-04-22T16:12:06.872Z,16.50
2023-04-22T16:14:38.963Z,16.53
2023-04-22T16:17:11.049Z,16.39
2023-04-22T16:19:43.609Z,16.30
2023-04-22T16:22:15.683Z,16.12
2023-04-22T16:24:47.636Z,16.12
2023-04-22T16:27:19.824Z,16.05
2023-04-22T16:29:52.649Z,15.84
2023-04-22T16:32:25.429Z,15.84
2023-04-22T16:34:57.802Z,15.75
2023-04-22T16:37:31.102Z,15.51
2023-04-22T16:40:04.981Z,15.40
2023-04-22T16:42:37.977Z,15.40
2023-04-22T16:45:10.791Z,15.30
2023-04-22T16:47:43.082Z,15.21
2023-04-22T16:50:15.695Z,15.14
2023-04-22T16:52:48.076Z,15.05
2023-04-22T16:55:21.297Z,14.98
2023-04-22T16:57:53.608Z,14.95
2023-04-22T17:00:26.212Z,14.85
2023-04-22T17:02:58.799Z,14.76
2023-04-22T17:05:31.431Z,14.70
2023-04-22T17:08:03.662Z,14.65
2023-04-22T17:10:37.370Z,14.59
2023-04-22T17:13:09.374Z,14.60
2023-04-22T17:15:41.983Z,14.55
2023-04-22T17:18:15.102Z,14.53
2023-04-22T17:20:49.190Z,14.51
2023-04-22T17:23:21.444Z,14.49
2023-04-22T17:25:53.905Z,14.45
2023-04-22T17:28:26.534Z,14.41
2023-04-22T17:30:58.760Z,14.40
2023-04-22T17:33:31.459Z,14.38
2023-04-22T17:36:04.250Z,14.32
2023-04-22T17:38:36.661Z,14.26
2023-04-22T17:41:09.255Z,14.22
2023-04-22T17:43:41.786Z,14.21
2023-04-22T17:46:14.063Z,14.14
2023-04-22T17:48:46.996Z,14.07
2023-04-22T17:51:19.520Z,14.00
2023-04-22T17:53:53.019Z,13.90
2023-04-22T17:56:26.790Z,13.85
2023-04-22T17:59:00.127Z,13.76
2023-04-22T18:01:32.852Z,13.70
2023-04-22T18:04:06.030Z,13.62
2023-04-22T18:06:39.977Z,13.59
2023-04-22T18:09:12.386Z,13.53
2023-04-22T18:11:44.722Z,13.49
2023-04-22T18:14:17.003Z,13.45
2023-04-22T18:16:49.172Z,13.40
2023-04-22T18:19:21.359Z,13.34
2023-04-22T18:22:00.115Z,13.32
2023-04-22T18:24:27.554Z,13.30
2023-04-22T18:26:59.258Z,13.39
2023-04-22T18:29:33.520Z,13.32
2023-04-22T18:32:06.040Z,13.34
2023-04-22T18:34:38.792Z,13.32
2023-04-22T18:37:11.213Z,13.29
2023-04-22T18:39:43.773Z,13.29
2023-04-22T18:42:16.083Z,13.25
2023-04-22T18:44:48.502Z,13.22
2023-04-22T18:47:20.976Z,13.17
2023-04-22T18:49:53.119Z,13.13
2023-04-22T18:52:25.720Z,13.11
2023-04-22T18:54:57.775Z,13.08
2023-04-22T18:57:30.342Z,13.05
2023-04-22T19:00:03.157Z,13.03
2023-04-22T19:02:39.771Z,13.02
2023-04-22T19:05:11.381Z,12.99
2023-04-22T19:07:45.182Z,12.96
2023-04-22T19:10:17.838Z,12.95
2023-04-22T19:12:50.211Z,12.91
2023-04-22T19:15:22.216Z,12.90
2023-04-22T19:17:54.222Z,12.85
2023-04-22T19:20:26.495Z,12.83
2023-04-22T19:22:58.797Z,12.80
2023-04-22T19:25:31.798Z,12.79
2023-04-22T19:28:03.894Z,12.77
2023-04-22T19:30:36.194Z,12.71
2023-04-22T19:33:08.368Z,12.69
2023-04-22T19:35:40.347Z,12.62
2023-04-22T19:38:14.101Z,12.54
2023-04-22T19:40:46.377Z,12.56
2023-04-22T19:43:19.458Z,12.56
2023-04-22T19:45:51.862Z,12.56
2023-04-22T19:48:24.807Z,12.52
2023-04-22T19:50:57.883Z,12.52
2023-04-22T19:53:31.703Z,12.53
2023-04-22T19:56:04.747Z,12.49
2023-04-22T19:58:37.223Z,12.48
2023-04-22T20:01:09.691Z,12.46
2023-04-22T20:03:42.425Z,12.47
2023-04-22T20:06:15.597Z,12.48
2023-04-22T20:08:48.144Z,12.45
2023-04-22T20:11:21.701Z,12.45
2023-04-22T20:13:54.514Z,12.44
2023-04-22T20:16:28.167Z,12.40
2023-04-22T20:19:00.401Z,12.39
2023-04-22T20:21:33.137Z,12.37
2023-04-22T20:24:06.346Z,12.33
2023-04-22T20:26:39.099Z,12.31
2023-04-22T20:29:11.841Z,12.28
2023-04-22T20:31:44.036Z,12.28
2023-04-22T20:34:16.618Z,12.25
2023-04-22T20:36:49.739Z,12.19
2023-04-22T20:39:23.544Z,12.18
2023-04-22T20:41:59.525Z,12.15
2023-04-22T20:44:31.910Z,12.15
2023-04-22T20:47:04.161Z,12.10
2023-04-22T20:49:38.205Z,12.04
2023-04-22T20:52:11.556Z,12.01
2023-04-22T20:54:44.415Z,11.98
2023-04-22T20:57:16.771Z,11.96
2023-04-22T20:59:49.439Z,11.90
2023-04-22T21:02:22.787Z,11.87
2023-04-22T21:04:55.482Z,11.83
2023-04-22T21:07:30.858Z,11.81
2023-04-22T21:10:03.275Z,11.76
2023-04-22T21:12:36.011Z,11.74
2023-04-22T21:15:09.234Z,11.72
2023-04-22T21:17:44.809Z,11.69
2023-04-22T21:20:21.026Z,11.65
2023-04-22T21:22:55.197Z,11.65
2023-04-22T21:25:28.801Z,11.62
2023-04-22T21:28:01.379Z,11.61
2023-04-22T21:30:33.605Z,11.59
2023-04-22T21:33:05.852Z,11.55
2023-04-22T21:35:39.448Z,11.56
2023-04-22T21:38:11.724Z,11.54
2023-04-22T21:40:44.014Z,11.54
2023-04-22T21:43:16.028Z,11.51
2023-04-22T21:45:48.426Z,11.48
2023-04-22T21:48:21.218Z,11.45
2023-04-22T21:50:53.558Z,11.42
2023-04-22T21:53:25.814Z,11.42
2023-04-22T21:55:57.908Z,11.38
2023-04-22T21:58:29.954Z,11.41
2023-04-22T22:01:02.091Z,11.45
2023-04-22T22:03:34.991Z,11.49
2023-04-22T22:06:07.659Z,11.48
2023-04-22T22:08:40.840Z,11.44
2023-04-22T22:11:27.513Z,11.44
2023-04-22T22:13:48.430Z,11.39
2023-04-22T22:16:20.663Z,11.31
2023-04-22T22:18:52.825Z,11.22
2023-04-22T22:21:26.137Z,11.24
2023-04-22T22:23:58.169Z,11.22
2023-04-22T22:26:30.730Z,11.23
2023-04-22T22:29:03.402Z,11.20
2023-04-22T22:31:36.055Z,11.18
2023-04-22T22:34:08.175Z,11.19
2023-04-22T22:36:41.397Z,11.27
2023-04-22T22:39:15.449Z,11.37
2023-04-22T22:41:48.357Z,11.51
2023-04-22T22:44:20.795Z,11.61
2023-04-22T22:46:53.235Z,11.63
2023-04-22T22:49:25.504Z,11.71
2023-04-22T22:51:58.149Z,11.76
2023-04-22T22:54:30.374Z,11.75
2023-04-22T22:57:03.237Z,11.76
2023-04-22T22:59:36.510Z,11.74
2023-04-22T23:02:08.835Z,11.72
2023-04-22T23:04:42.290Z,11.73
2023-04-22T23:07:16.182Z,11.74
2023-04-22T23:09:48.201Z,11.74
2023-04-22T23:12:20.410Z,11.75
2023-04-22T23:14:52.538Z,11.75
2023-04-22T23:17:25.089Z,11.76
2023-04-22T23:19:57.361Z,11.74
2023-04-22T23:22:31.271Z,11.72
2023-04-22T23:25:04.358Z,11.70
2023-04-22T23:27:36.783Z,11.66
2023-04-22T23:30:09.767Z,11.61
2023-04-22T23:32:43.902Z,11.52
2023-04-22T23:35:17.036Z,11.43
2023-04-22T23:37:50.836Z,11.40
2023-04-22T23:40:23.202Z,11.40
2023-04-22T23:42:55.517Z,11.40
2023-04-22T23:45:27.661Z,11.43
2023-04-22T23:48:00.107Z,11.45
2023-04-22T23:50:32.227Z,11.45
2023-04-22T23:53:04.576Z,11.44
2023-04-22T23:55:37.411Z,11.45
2023-04-22T23:58:09.479Z,11.39
